Time;durP1;ratioP1;P1;durP2;ratioP2;P2;SDS_P1;SDS_P2;PMS_P1;PMS_P2;Temp;Humidity;BMP_temperature;BMP_pressure;BME280_temperature;BME280_humidity;BME280_pressure;Samples;Min_cycle;Max_cycle;Signal;HPM_P1;HPM_P2
2024/03/17 00:00:54;;;;;;;31.90;24.00;;;;;;;6.80;100.00;100517.65;87198;272;138718;-75
2024/03/17 00:02:55;;;;;;;28.60;23.30;;;;;;;6.80;100.00;100517.82;87048;268;22563;-72
2024/03/17 00:04:56;;;;;;;32.40;25.10;;;;;;;6.78;100.00;100517.31;86964;275;137790;-75
2024/03/17 00:06:57;;;;;;;36.20;24.60;;;;;;;6.77;100.00;100518.42;87018;273;22607;-72
2024/03/17 00:08:58;;;;;;;31.80;23.60;;;;;;;6.76;100.00;100520.13;86945;275;137045;-74
2024/03/17 00:10:59;;;;;;;32.80;25.50;;;;;;;6.75;100.00;100519.52;86954;277;25147;-72
2024/03/17 00:13:03;;;;;;;31.50;23.10;;;;;;;6.74;100.00;100518.63;86966;266;136909;-71
2024/03/17 00:15:06;;;;;;;33.80;23.90;;;;;;;6.71;100.00;100515.20;87113;272;22558;-72
2024/03/17 00:17:07;;;;;;;36.50;26.50;;;;;;;6.70;100.00;100514.59;87902;265;136610;-70
2024/03/17 00:19:08;;;;;;;38.30;25.30;;;;;;;6.72;100.00;100509.80;88703;273;22556;-71
2024/03/17 00:21:08;;;;;;;37.70;27.20;;;;;;;6.71;100.00;100507.25;88530;267;137068;-77
2024/03/17 00:23:11;;;;;;;34.20;25.50;;;;;;;6.73;100.00;100501.98;88783;268;24853;-70
2024/03/17 00:25:12;;;;;;;36.10;26.00;;;;;;;6.73;100.00;100500.90;89044;267;136804;-74
2024/03/17 00:27:13;;;;;;;39.10;28.50;;;;;;;6.73;100.00;100499.15;88464;279;22581;-73
2024/03/17 00:29:15;;;;;;;36.30;27.40;;;;;;;6.73;100.00;100494.88;88394;266;138056;-70
2024/03/17 00:31:17;;;;;;;34.10;26.60;;;;;;;6.73;100.00;100492.59;88205;265;25124;-71
2024/03/17 00:33:19;;;;;;;32.20;24.30;;;;;;;6.73;100.00;100488.52;87277;270;136830;-72
2024/03/17 00:35:22;;;;;;;36.40;25.80;;;;;;;6.75;100.00;100491.51;87302;270;22576;-74
2024/03/17 00:37:23;;;;;;;39.40;27.10;;;;;;;6.75;100.00;100485.61;86990;276;137033;-72
2024/03/17 00:39:23;;;;;;;36.10;25.50;;;;;;;6.73;100.00;100485.63;87128;267;25194;-71
2024/03/17 00:41:24;;;;;;;37.00;26.80;;;;;;;6.74;100.00;100484.73;87171;270;137156;-72
2024/03/17 00:43:25;;;;;;;35.90;26.80;;;;;;;6.70;100.00;100484.20;87014;280;22556;-71
2024/03/17 00:45:26;;;;;;;40.70;28.10;;;;;;;6.68;100.00;100480.23;87036;267;137825;-74
2024/03/17 00:47:26;;;;;;;40.80;28.00;;;;;;;6.65;100.00;100480.83;86970;270;22574;-75
2024/03/17 00:49:27;;;;;;;35.70;25.80;;;;;;;6.65;100.00;100474.04;87010;270;137085;-72
2024/03/17 00:51:28;;;;;;;38.60;28.20;;;;;;;6.64;100.00;100472.66;87194;266;25342;-71
2024/03/17 00:53:29;;;;;;;40.10;28.20;;;;;;;6.66;100.00;100469.88;86872;278;138305;-74
2024/03/17 00:55:30;;;;;;;37.20;28.20;;;;;;;6.68;100.00;100467.50;87080;279;22770;-68
2024/03/17 00:57:30;;;;;;;41.50;27.80;;;;;;;6.69;100.00;100468.27;87101;270;138487;-72
2024/03/17 00:59:31;;;;;;;40.20;28.10;;;;;;;6.69;100.00;100469.73;87050;269;22545;-72
2024/03/17 01:01:32;;;;;;;40.20;28.20;;;;;;;6.69;100.00;100465.74;87075;278;138114;-74
2024/03/17 01:03:33;;;;;;;39.50;29.10;;;;;;;6.72;100.00;100468.14;87202;278;22737;-73
2024/03/17 01:05:34;;;;;;;37.00;27.00;;;;;;;6.74;100.00;100461.95;86999;267;136825;-70
2024/03/17 01:07:35;;;;;;;38.40;29.70;;;;;;;6.75;100.00;100464.08;87091;268;25188;-72
2024/03/17 01:09:36;;;;;;;40.40;28.40;;;;;;;6.76;100.00;100459.08;86955;271;136936;-73
2024/03/17 01:11:37;;;;;;;52.70;33.70;;;;;;;6.75;100.00;100456.52;87093;279;23634;-72
2024/03/17 01:13:41;;;;;;;41.40;29.00;;;;;;;6.74;100.00;100455.52;86856;272;136949;-71
2024/03/17 01:15:42;;;;;;;41.50;28.20;;;;;;;6.74;100.00;100455.70;87590;271;24039;-70
2024/03/17 01:17:43;;;;;;;41.50;28.70;;;;;;;6.74;100.00;100450.83;87208;278;136902;-72
2024/03/17 01:19:44;;;;;;;40.60;29.10;;;;;;;6.72;100.00;100452.21;87091;271;25120;-69
2024/03/17 01:21:45;;;;;;;46.50;30.20;;;;;;;6.72;100.00;100452.80;86974;271;136651;-71
2024/03/17 01:23:48;;;;;;;36.80;27.40;;;;;;;6.71;100.00;100450.95;87015;268;24084;-71
2024/03/17 01:25:49;;;;;;;40.50;30.90;;;;;;;6.71;100.00;100449.49;87013;274;136833;-74
2024/03/17 01:27:49;;;;;;;44.40;32.40;;;;;;;6.70;100.00;100451.79;87081;272;24051;-73
2024/03/17 01:29:50;;;;;;;40.50;29.70;;;;;;;6.69;100.00;100448.16;86956;271;136907;-72
2024/03/17 01:31:51;;;;;;;42.10;29.00;;;;;;;6.69;100.00;100445.88;87112;266;24039;-75
2024/03/17 01:33:52;;;;;;;43.00;30.00;;;;;;;6.68;100.00;100451.56;87030;278;137918;-75
2024/03/17 01:35:53;;;;;;;43.10;32.10;;;;;;;6.67;100.00;100446.38;87101;268;24061;-73
2024/03/17 01:37:54;;;;;;;42.80;29.70;;;;;;;6.67;100.00;100445.38;87066;270;137792;-72
2024/03/17 01:39:54;;;;;;;40.00;27.70;;;;;;;6.66;100.00;100438.55;87118;270;22567;-72
2024/03/17 01:41:55;;;;;;;44.00;31.70;;;;;;;6.62;100.00;100436.65;87017;271;137050;-73
2024/03/17 01:43:56;;;;;;;47.30;31.80;;;;;;;6.61;100.00;100435.34;87032;270;22552;-72
2024/03/17 01:45:58;;;;;;;46.70;30.60;;;;;;;6.61;100.00;100435.55;86933;268;137966;-73
2024/03/17 01:48:01;;;;;;;43.00;29.30;;;;;;;6.60;100.00;100436.30;87259;268;22584;-73
2024/03/17 01:50:02;;;;;;;42.00;29.90;;;;;;;6.60;100.00;100431.58;87237;279;24142;-71
2024/03/17 01:52:05;;;;;;;40.80;30.80;;;;;;;6.61;100.00;100431.88;87083;271;137267;-71
2024/03/17 01:54:08;;;;;;;39.90;30.30;;;;;;;6.60;100.00;100433.50;87213;271;22536;-72
2024/03/17 01:56:11;;;;;;;42.10;28.60;;;;;;;6.61;100.00;100430.91;86766;270;137793;-72
2024/03/17 01:58:13;;;;;;;41.80;32.00;;;;;;;6.62;100.00;100431.55;87328;279;23025;-72
2024/03/17 02:00:14;;;;;;;42.80;30.10;;;;;;;6.63;100.00;100430.40;86984;272;136925;-72
2024/03/17 02:02:14;;;;;;;45.50;30.90;;;;;;;6.64;100.00;100428.71;87239;271;25194;-74
2024/03/17 02:04:17;;;;;;;36.70;28.20;;;;;;;6.67;100.00;100427.92;87123;270;137318;-72
2024/03/17 02:06:18;;;;;;;42.50;31.70;;;;;;;6.67;100.00;100426.96;87240;271;22562;-74
2024/03/17 02:08:20;;;;;;;43.90;32.30;;;;;;;6.67;100.00;100429.08;87055;271;138521;-74
2024/03/17 02:10:21;;;;;;;45.60;32.10;;;;;;;6.66;100.00;100423.52;87288;270;24180;-73
2024/03/17 02:12:23;;;;;;;39.40;28.80;;;;;;;6.69;100.00;100424.13;86986;270;136810;-74
2024/03/17 02:14:24;;;;;;;45.70;32.40;;;;;;;6.70;100.00;100421.90;87152;272;22655;-73
2024/03/17 02:16:25;;;;;;;39.30;30.30;;;;;;;6.70;100.00;100422.24;86946;267;136675;-71
2024/03/17 02:18:25;;;;;;;39.10;27.60;;;;;;;6.70;100.00;100417.80;87077;279;24001;-72
2024/03/17 02:22:45;;;;;;;39.90;29.70;;;;;;;6.69;100.00;100418.87;87057;272;23715;-73
2024/03/17 02:24:46;;;;;;;44.10;31.10;;;;;;;6.69;100.00;100416.58;86920;271;136579;-72
2024/03/17 02:26:47;;;;;;;41.90;29.20;;;;;;;6.69;100.00;100415.48;87192;267;24006;-72
2024/03/17 02:28:48;;;;;;;41.10;29.50;;;;;;;6.68;100.00;100413.60;87082;278;137260;-72
2024/03/17 02:30:49;;;;;;;38.60;28.00;;;;;;;6.69;100.00;100412.45;87181;278;22598;-71
2024/03/17 02:32:54;;;;;;;38.90;28.90;;;;;;;6.70;100.00;100410.98;87075;273;137043;-74
2024/03/17 02:34:55;;;;;;;;;;;;;;;6.70;100.00;100413.56;87040;268;24248;-71
2024/03/17 02:36:56;;;;;;;39.50;29.10;;;;;;;6.71;100.00;100408.97;87105;267;122675;-72
2024/03/17 02:41:16;;;;;;;39.60;29.30;;;;;;;6.69;100.00;100409.96;87026;276;137765;-73
2024/03/17 02:43:17;;;;;;;38.00;29.50;;;;;;;6.69;100.00;100410.72;87122;271;22558;-74
2024/03/17 02:45:18;;;;;;;42.60;29.30;;;;;;;6.67;100.00;100408.75;86962;272;137167;-73
2024/03/17 02:48:37;;;;;;;36.20;27.70;;;;;;;6.54;100.00;100404.38;85074;301;604414;-74
2024/03/17 02:50:38;;;;;;;40.20;30.90;;;;;;;6.62;100.00;100408.75;86567;281;23504;-76
2024/03/17 02:52:39;;;;;;;37.60;27.50;;;;;;;6.66;100.00;100406.58;86713;285;137540;-72
2024/03/17 02:54:40;;;;;;;45.30;32.40;;;;;;;6.64;100.00;100402.59;86769;284;22560;-76
2024/03/17 02:56:41;;;;;;;40.90;30.20;;;;;;;6.58;100.00;100400.39;86771;284;136263;-72
2024/03/17 02:58:45;;;;;;;40.70;28.80;;;;;;;6.62;100.00;100396.03;86715;285;24054;-73
2024/03/17 03:00:45;;;;;;;37.10;29.50;;;;;;;6.62;100.00;100395.34;86385;288;137222;-74
2024/03/17 03:02:46;;;;;;;41.20;28.70;;;;;;;6.62;100.00;100395.20;85949;283;818913;-73
2024/03/17 03:04:47;;;;;;;40.00;30.20;;;;;;;6.60;100.00;100391.86;86698;277;136844;-74
2024/03/17 03:06:48;;;;;;;42.20;29.30;;;;;;;6.65;100.00;100391.77;86948;276;24120;-75
2024/03/17 03:08:50;;;;;;;40.20;30.10;;;;;;;6.64;100.00;100393.55;87022;276;136295;-74
2024/03/17 03:10:51;;;;;;;42.80;30.50;;;;;;;6.65;100.00;100391.84;86653;282;22577;-73
2024/03/17 03:12:52;;;;;;;39.40;29.10;;;;;;;6.66;100.00;100389.29;86751;281;137180;-76
2024/03/17 03:14:52;;;;;;;42.80;31.70;;;;;;;6.65;100.00;100390.61;87091;273;25208;-74
2024/03/17 03:16:53;;;;;;;41.40;30.50;;;;;;;6.65;100.00;100389.91;86912;276;136649;-75
2024/03/17 03:18:54;;;;;;;39.50;29.60;;;;;;;6.67;100.00;100387.11;87063;269;22632;-75
2024/03/17 03:20:55;;;;;;;41.80;29.40;;;;;;;6.68;100.00;100386.41;86742;277;137379;-75
2024/03/17 03:22:56;;;;;;;37.10;29.10;;;;;;;6.71;100.00;100383.96;87149;275;22577;-75
2024/03/17 03:24:57;;;;;;;40.50;29.00;;;;;;;6.72;100.00;100381.79;86968;271;136564;-74
2024/03/17 03:26:58;;;;;;;37.30;28.30;;;;;;;6.75;100.00;100381.33;86819;275;22647;-74
2024/03/17 03:28:59;;;;;;;42.40;29.20;;;;;;;6.75;100.00;100379.35;86690;276;136880;-74
2024/03/17 03:31:00;;;;;;;38.30;28.80;;;;;;;6.76;100.00;100375.20;86792;272;23295;-73
2024/03/17 03:33:00;;;;;;;38.10;28.40;;;;;;;6.76;100.00;100374.48;86570;280;136823;-75
2024/03/17 03:35:01;;;;;;;37.50;29.20;;;;;;;6.75;100.00;100373.52;86594;276;22570;-76
2024/03/17 03:37:01;;;;;;;32.60;26.00;;;;;;;6.75;100.00;100375.44;87014;284;136689;-74
2024/03/17 03:39:04;;;;;;;40.10;28.20;;;;;;;6.77;100.00;100372.95;87102;276;24029;-74
2024/03/17 03:41:09;;;;;;;40.90;28.20;;;;;;;6.77;100.00;100373.25;86699;276;136771;-76
2024/03/17 03:43:10;;;;;;;;;;;;;;;6.79;100.00;100370.80;87043;275;22537;-76
2024/03/17 03:45:14;;;;;;;39.50;26.40;;;;;;;6.81;100.00;100372.20;87005;275;124345;-75
2024/03/17 03:47:15;;;;;;;33.80;26.00;;;;;;;6.83;100.00;100372.34;87044;283;25227;-76
2024/03/17 03:49:16;;;;;;;33.20;26.30;;;;;;;6.85;100.00;100371.54;87077;273;137472;-76
2024/03/17 03:51:17;;;;;;;36.00;28.30;;;;;;;6.87;100.00;100369.59;87109;276;25083;-76
2024/03/17 03:53:17;;;;;;;38.40;28.60;;;;;;;6.87;100.00;100370.45;87168;274;136993;-75
2024/03/17 03:55:19;;;;;;;39.50;27.80;;;;;;;6.86;100.00;100370.63;87214;274;22571;-76
2024/03/17 03:57:20;;;;;;;36.40;28.00;;;;;;;6.83;100.00;100370.31;87190;283;136539;-74
2024/03/17 03:59:21;;;;;;;39.00;29.10;;;;;;;6.84;100.00;100368.86;87263;284;22577;-76
2024/03/17 04:01:22;;;;;;;37.30;27.80;;;;;;;6.84;100.00;100372.92;86987;277;137232;-75
2024/03/17 04:03:23;;;;;;;37.60;27.30;;;;;;;6.83;100.00;100370.67;86704;272;22549;-77
2024/03/17 04:05:24;;;;;;;35.80;26.80;;;;;;;6.81;100.00;100372.13;87055;284;137197;-75
2024/03/17 04:07:24;;;;;;;36.60;28.10;;;;;;;6.78;100.00;100372.63;87082;284;22645;-76
2024/03/17 04:09:25;;;;;;;36.70;27.20;;;;;;;6.76;100.00;100374.67;86998;282;137029;-76
2024/03/17 04:11:26;;;;;;;42.00;29.30;;;;;;;6.73;100.00;100369.27;87113;277;25412;-75
2024/03/17 04:13:29;;;;;;;32.90;25.50;;;;;;;6.72;100.00;100369.40;87057;277;137125;-76
2024/03/17 04:15:30;;;;;;;39.80;28.90;;;;;;;6.70;100.00;100370.45;87234;284;24001;-75
2024/03/17 04:17:31;;;;;;;37.50;26.70;;;;;;;6.70;100.00;100366.38;87083;275;138005;-78
2024/03/17 04:19:32;;;;;;;34.90;26.10;;;;;;;6.71;100.00;100366.52;86811;283;24014;-76
2024/03/17 04:21:33;;;;;;;40.10;29.30;;;;;;;6.70;100.00;100362.55;86464;286;136702;-76
2024/03/17 04:23:34;;;;;;;36.20;27.80;;;;;;;6.71;100.00;100363.40;87208;279;22954;-76
2024/03/17 04:25:35;;;;;;;39.20;28.70;;;;;;;6.70;100.00;100362.91;87206;275;137557;-76
2024/03/17 04:27:35;;;;;;;34.70;27.00;;;;;;;6.70;100.00;100360.10;86833;283;25111;-75
2024/03/17 04:29:37;;;;;;;38.20;28.40;;;;;;;6.70;100.00;100359.40;86832;276;136684;-76
2024/03/17 04:31:38;;;;;;;36.90;26.90;;;;;;;6.70;100.00;100358.50;87513;282;22984;-77
2024/03/17 04:33:38;;;;;;;38.40;26.40;;;;;;;6.72;100.00;100361.31;87465;281;136098;-75
2024/03/17 04:35:41;;;;;;;36.20;26.80;;;;;;;6.72;100.00;100363.74;87310;275;22526;-76
2024/03/17 04:37:42;;;;;;;37.60;27.50;;;;;;;6.73;100.00;100362.42;87094;273;138316;-76
2024/03/17 04:39:44;;;;;;;33.10;26.30;;;;;;;6.73;100.00;100360.30;87284;274;25162;-74
2024/03/17 04:41:47;;;;;;;33.70;26.70;;;;;;;6.74;100.00;100357.56;87243;275;136382;-74
2024/03/17 04:43:48;;;;;;;36.50;26.90;;;;;;;6.74;100.00;100355.23;87454;275;22565;-76
2024/03/17 04:45:49;;;;;;;39.40;27.00;;;;;;;6.74;100.00;100352.22;87127;272;136357;-73
2024/03/17 04:47:50;;;;;;;33.10;27.00;;;;;;;6.75;100.00;100355.96;87065;281;23646;-76
2024/03/17 04:49:50;;;;;;;35.50;25.30;;;;;;;6.77;100.00;100356.66;86985;281;136764;-76
2024/03/17 04:51:51;;;;;;;36.60;27.30;;;;;;;6.77;100.00;100355.08;87239;280;22572;-76
2024/03/17 04:53:52;;;;;;;38.30;27.50;;;;;;;6.85;100.00;100352.84;87061;280;136666;-75
2024/03/17 04:56:04;;;;;;;38.40;28.10;;;;;;;7.00;100.00;100352.81;87205;283;22983;-78
2024/03/17 04:58:05;;;;;;;40.70;28.10;;;;;;;7.26;100.00;100351.23;87156;280;25321;-75
2024/03/17 05:00:07;;;;;;;35.80;26.40;;;;;;;7.52;100.00;100349.89;87073;283;137586;-74
2024/03/17 05:02:08;;;;;;;36.90;28.40;;;;;;;7.74;100.00;100350.34;87205;283;24122;-77
2024/03/17 05:04:08;;;;;;;33.80;25.30;;;;;;;8.00;100.00;100350.99;87076;283;136999;-76
2024/03/17 05:06:09;;;;;;;33.40;26.00;;;;;;;8.32;100.00;100347.55;87281;282;23496;-75
2024/03/17 05:08:10;;;;;;;36.20;25.60;;;;;;;8.66;100.00;100351.57;87161;267;138242;-74
2024/03/17 05:10:11;;;;;;;33.90;24.40;;;;;;;8.93;100.00;100350.09;87079;272;24088;-74
2024/03/17 05:12:12;;;;;;;32.50;24.70;;;;;;;9.08;100.00;100349.66;86492;285;137565;-74
2024/03/17 05:14:13;;;;;;;32.50;25.70;;;;;;;9.25;100.00;100352.59;87153;275;22572;-76
2024/03/17 05:16:14;;;;;;;26.70;22.30;;;;;;;9.46;100.00;100347.73;87088;275;138020;-75
2024/03/17 05:18:15;;;;;;;31.30;23.10;;;;;;;9.69;100.00;100345.92;87247;271;22570;-74
2024/03/17 05:20:15;;;;;;;30.50;23.70;;;;;;;9.92;100.00;100346.73;86983;284;136799;-74
2024/03/17 05:22:17;;;;;;;28.20;22.70;;;;;;;10.17;100.00;100340.76;86819;283;24020;-74
2024/03/17 05:24:19;;;;;;;28.10;22.40;;;;;;;10.37;100.00;100347.05;86608;284;137295;-72
2024/03/17 05:26:20;;;;;;;30.50;23.40;;;;;;;10.48;100.00;100343.21;86705;275;24004;-73
2024/03/17 05:28:21;;;;;;;29.60;23.30;;;;;;;10.64;100.00;100343.76;86746;275;139394;-71
2024/03/17 05:30:22;;;;;;;29.50;23.40;;;;;;;10.78;100.00;100340.37;86848;283;24212;-74
2024/03/17 05:32:22;;;;;;;29.60;23.10;;;;;;;10.82;100.00;100340.09;86824;283;137174;-73
2024/03/17 05:34:24;;;;;;;27.60;22.20;;;;;;;10.92;100.00;100342.19;86954;274;24138;-75
2024/03/17 05:36:24;;;;;;;27.10;22.40;;;;;;;10.95;100.00;100341.52;86612;281;136323;-75
2024/03/17 05:38:30;;;;;;;30.90;24.80;;;;;;;10.98;100.00;100338.89;87160;275;22881;-75
2024/03/17 05:40:31;;;;;;;33.00;24.40;;;;;;;11.09;100.00;100339.39;86845;277;137785;-79
2024/03/17 05:42:32;;;;;;;28.20;22.20;;;;;;;11.27;100.00;100340.09;87155;275;23973;-76
2024/03/17 05:44:49;;;;;;;30.30;23.30;;;;;;;11.39;100.00;100337.34;87113;280;136451;-74
2024/03/17 05:46:52;;;;;;;30.10;23.00;;;;;;;11.48;100.00;100341.48;87431;276;25259;-73
2024/03/17 05:48:54;;;;;;;31.30;23.30;;;;;;;11.60;100.00;100341.48;87253;281;136318;-74
2024/03/17 05:50:55;;;;;;;26.60;22.00;;;;;;;11.60;100.00;100341.03;87436;273;23702;-74
2024/03/17 05:52:55;;;;;;;28.60;22.30;;;;;;;11.61;100.00;100339.72;86953;280;137393;-73
2024/03/17 05:54:56;;;;;;;29.40;23.10;;;;;;;11.53;100.00;100336.99;87054;280;25325;-74
2024/03/17 05:56:57;;;;;;;26.90;19.50;;;;;;;11.40;100.00;100335.66;86995;265;136690;-76
2024/03/17 05:58:57;;;;;;;26.30;22.60;;;;;;;11.42;100.00;100333.64;86952;273;24830;-74
2024/03/17 06:01:02;;;;;;;26.90;23.30;;;;;;;11.44;100.00;100337.59;86963;280;136520;-75
2024/03/17 06:03:05;;;;;;;25.10;20.00;;;;;;;11.47;100.00;100336.91;87454;274;22568;-75
2024/03/17 06:05:10;;;;;;;28.20;21.90;;;;;;;11.49;100.00;100337.05;87247;276;136661;-75
2024/03/17 06:07:10;;;;;;;29.00;20.80;;;;;;;11.48;100.00;100341.11;87168;276;23815;-74
2024/03/17 06:09:11;;;;;;;27.80;23.30;;;;;;;11.37;100.00;100340.50;87057;268;137398;-76
2024/03/17 06:11:12;;;;;;;29.60;22.60;;;;;;;11.29;100.00;100338.00;87105;268;24122;-75
2024/03/17 06:13:16;;;;;;;29.80;23.20;;;;;;;11.29;100.00;100332.13;87007;272;137143;-75
2024/03/17 06:15:17;;;;;;;28.40;22.60;;;;;;;11.40;100.00;100334.89;87351;272;23260;-75
2024/03/17 06:17:18;;;;;;;28.50;23.40;;;;;;;11.55;100.00;100332.41;87175;271;136914;-75
2024/03/17 06:19:19;;;;;;;25.90;22.50;;;;;;;11.66;100.00;100335.36;87111;280;22677;-76
2024/03/17 06:21:20;;;;;;;28.80;22.20;;;;;;;11.62;100.00;100340.81;87005;264;138387;-74
2024/03/17 06:23:21;;;;;;;27.10;22.20;;;;;;;11.39;100.00;100332.86;87452;268;22652;-74
2024/03/17 06:25:24;;;;;;;28.00;22.10;;;;;;;11.08;100.00;100336.27;87463;276;136610;-76
2024/03/17 06:27:25;;;;;;;29.90;22.40;;;;;;;10.79;100.00;100333.73;87024;276;22655;-75
2024/03/17 06:29:26;;;;;;;27.10;22.60;;;;;;;10.56;100.00;100335.02;86994;274;137225;-75
2024/03/17 06:31:27;;;;;;;26.60;22.00;;;;;;;10.41;100.00;100335.75;87201;287;24818;-74
2024/03/17 06:33:31;;;;;;;29.20;23.60;;;;;;;10.38;100.00;100332.73;87086;278;137768;-74
2024/03/17 06:35:32;;;;;;;25.50;21.70;;;;;;;10.43;100.00;100332.33;87418;272;22550;-75
2024/03/17 06:37:33;;;;;;;25.10;21.80;;;;;;;10.42;100.00;100333.84;87604;275;138369;-76
2024/03/17 06:39:33;;;;;;;28.80;22.40;;;;;;;10.47;100.00;100338.03;88632;276;22522;-74
2024/03/17 06:41:34;;;;;;;27.10;22.30;;;;;;;10.50;100.00;100333.92;89054;269;137374;-77
2024/03/17 06:43:35;;;;;;;28.10;22.40;;;;;;;10.44;100.00;100340.23;89388;277;22685;-77
2024/03/17 06:45:36;;;;;;;28.80;22.30;;;;;;;10.21;100.00;100337.08;89667;262;137334;-75
2024/03/17 06:47:37;;;;;;;27.00;21.60;;;;;;;9.85;100.00;100340.08;89357;268;22590;-76
2024/03/17 06:49:38;;;;;;;25.60;20.30;;;;;;;9.41;100.00;100345.36;87516;280;137327;-75
2024/03/17 06:51:39;;;;;;;24.80;20.50;;;;;;;9.00;100.00;100344.84;87779;271;22565;-75
2024/03/17 06:53:39;;;;;;;26.00;21.70;;;;;;;8.62;100.00;100348.48;87557;272;137617;-73
2024/03/17 06:55:40;;;;;;;30.70;21.30;;;;;;;8.29;100.00;100349.65;87505;274;22528;-76
2024/03/17 06:57:43;;;;;;;27.00;21.60;;;;;;;8.03;100.00;100343.48;87410;268;137679;-75
2024/03/17 06:59:45;;;;;;;28.10;22.00;;;;;;;7.85;100.00;100343.05;87674;271;24038;-75
2024/03/17 07:01:47;;;;;;;26.30;20.90;;;;;;;7.70;100.00;100348.26;87590;270;137329;-75
2024/03/17 07:03:47;;;;;;;29.00;22.40;;;;;;;7.62;100.00;100351.05;86937;274;25258;-76
2024/03/17 07:05:56;;;;;;;26.70;22.10;;;;;;;7.54;100.00;100351.63;87399;270;136854;-74
2024/03/17 07:07:56;;;;;;;26.20;20.40;;;;;;;7.45;100.00;100348.21;87677;270;22564;-75
2024/03/17 07:09:57;;;;;;;26.70;21.20;;;;;;;7.37;100.00;100347.58;87282;271;136573;-74
2024/03/17 07:11:58;;;;;;;26.60;21.10;;;;;;;7.26;100.00;100342.64;86872;271;25312;-75
2024/03/17 07:13:59;;;;;;;27.20;19.70;;;;;;;7.15;100.00;100345.95;86864;280;136932;-74
2024/03/17 07:16:01;;;;;;;24.50;19.90;;;;;;;7.09;100.00;100342.72;87013;272;22588;-78
2024/03/17 07:18:02;;;;;;;25.60;20.40;;;;;;;7.03;100.00;100340.48;87495;269;136384;-75
2024/03/17 07:20:08;;;;;;;27.60;21.30;;;;;;;6.99;100.00;100342.16;87222;269;137809;-75
2024/03/17 07:22:08;;;;;;;27.50;21.50;;;;;;;6.92;100.00;100340.29;87411;273;22900;-77
2024/03/17 07:24:09;;;;;;;28.80;19.90;;;;;;;6.81;100.00;100339.48;87302;269;137360;-76
2024/03/17 07:26:10;;;;;;;27.50;21.00;;;;;;;6.73;100.00;100341.39;87348;277;25141;-75
2024/03/17 07:28:11;;;;;;;27.60;20.30;;;;;;;6.67;100.00;100343.06;87371;279;137080;-75
2024/03/17 07:30:13;;;;;;;26.40;19.60;;;;;;;6.58;100.00;100341.20;87396;272;22584;-74
2024/03/17 07:32:14;;;;;;;28.00;20.50;;;;;;;6.45;100.00;100345.73;87168;274;137108;-79
2024/03/17 07:34:15;;;;;;;23.30;18.00;;;;;;;6.39;100.00;100346.92;87354;274;22568;-76
2024/03/17 07:36:16;;;;;;;22.80;18.20;;;;;;;6.31;100.00;100346.12;87364;273;137187;-75
2024/03/17 07:38:18;;;;;;;22.20;17.60;;;;;;;6.28;100.00;100342.59;87624;271;26857;-71
2024/03/17 07:40:19;;;;;;;22.00;17.60;;;;;;;6.26;100.00;100347.02;87090;270;138118;-69
2024/03/17 07:42:20;;;;;;;27.60;19.70;;;;;;;6.25;100.00;100342.19;86951;281;22571;-69
2024/03/17 07:44:21;;;;;;;25.30;17.80;;;;;;;6.22;100.00;100342.44;86939;275;137218;-70
2024/03/17 07:46:27;;;;;;;23.20;17.30;;;;;;;6.19;100.00;100338.40;87119;265;25182;-70
2024/03/17 07:48:31;;;;;;;25.40;18.50;;;;;;;6.16;100.00;100339.63;86948;273;137048;-72
2024/03/17 07:50:34;;;;;;;22.10;17.50;;;;;;;6.15;100.00;100334.60;87086;268;22642;-71
2024/03/17 07:52:35;;;;;;;24.40;18.00;;;;;;;6.16;100.00;100333.13;86990;279;137172;-69
2024/03/17 07:54:36;;;;;;;22.90;18.20;;;;;;;6.18;100.00;100330.55;87026;269;22677;-70
2024/03/17 07:56:37;;;;;;;27.40;20.00;;;;;;;6.21;100.00;100328.65;86931;273;137334;-71
2024/03/17 07:58:40;;;;;;;27.20;18.50;;;;;;;6.26;100.00;100326.20;86907;278;22657;-71
2024/03/17 08:00:41;;;;;;;26.10;20.90;;;;;;;6.31;100.00;100325.30;87185;268;137269;-72
2024/03/17 08:02:45;;;;;;;23.50;18.20;;;;;;;6.36;100.00;100327.13;86966;272;23848;-72
2024/03/17 08:04:47;;;;;;;26.90;20.10;;;;;;;6.40;100.00;100325.65;86905;280;136897;-71
2024/03/17 08:06:47;;;;;;;26.30;19.30;;;;;;;6.43;100.00;100320.36;86983;268;22655;-71
2024/03/17 08:08:48;;;;;;;25.60;20.30;;;;;;;6.48;100.00;100318.80;86861;272;137190;-71
2024/03/17 08:10:49;;;;;;;22.90;18.10;;;;;;;6.50;100.00;100320.39;86892;282;24017;-69
2024/03/17 08:12:50;;;;;;;22.80;17.70;;;;;;;6.49;100.00;100318.34;86811;272;137212;-72
2024/03/17 08:14:51;;;;;;;24.90;18.90;;;;;;;6.51;100.00;100318.27;86910;272;25132;-71
2024/03/17 08:16:52;;;;;;;22.60;18.70;;;;;;;6.55;100.00;100317.84;87090;268;137348;-70
2024/03/17 08:18:53;;;;;;;24.50;18.80;;;;;;;6.60;100.00;100315.81;86826;279;22556;-69
2024/03/17 08:20:54;;;;;;;24.30;17.50;;;;;;;6.65;100.00;100319.00;86777;280;137112;-71
2024/03/17 08:22:55;;;;;;;26.40;17.50;;;;;;;6.67;100.00;100316.98;86931;279;22615;-70
2024/03/17 08:24:56;;;;;;;26.60;17.80;;;;;;;6.71;100.00;100315.85;86821;276;136536;-71
2024/03/17 08:26:56;;;;;;;24.20;18.70;;;;;;;6.71;100.00;100311.71;86990;275;22551;-71
2024/03/17 08:28:58;;;;;;;23.40;18.90;;;;;;;6.70;100.00;100306.39;86838;278;136770;-73
2024/03/17 08:31:03;;;;;;;21.90;17.80;;;;;;;6.72;100.00;100306.02;86934;276;22576;-72
2024/03/17 08:33:04;;;;;;;28.50;20.80;;;;;;;6.74;100.00;100305.64;87236;269;136931;-74
2024/03/17 08:35:06;;;;;;;22.60;17.80;;;;;;;6.77;100.00;100309.32;86949;280;26210;-73
2024/03/17 08:37:08;;;;;;;26.70;19.20;;;;;;;6.83;100.00;100307.98;88280;270;136806;-69
2024/03/17 08:39:11;;;;;;;27.30;19.30;;;;;;;6.88;100.00;100308.84;86887;280;22661;-72
2024/03/17 08:41:13;;;;;;;23.40;19.40;;;;;;;6.92;100.00;100309.74;86967;268;136953;-71
2024/03/17 08:43:14;;;;;;;27.00;19.30;;;;;;;6.96;100.00;100306.25;86773;272;22642;-71
2024/03/17 08:45:16;;;;;;;24.80;18.50;;;;;;;7.02;100.00;100312.66;86631;270;137162;-70
2024/03/17 08:47:16;;;;;;;24.30;18.90;;;;;;;7.06;100.00;100307.83;87085;271;22648;-72
2024/03/17 08:49:18;;;;;;;25.80;17.80;;;;;;;7.09;100.00;100309.45;86951;279;137086;-69
2024/03/17 08:51:19;;;;;;;24.10;19.20;;;;;;;7.11;100.00;100308.69;86846;275;24013;-71
2024/03/17 08:53:20;;;;;;;26.20;19.30;;;;;;;7.12;100.00;100308.29;86751;276;138427;-70
2024/03/17 08:55:22;;;;;;;25.50;18.70;;;;;;;7.11;100.00;100310.34;86837;279;25159;-71
2024/03/17 08:57:22;;;;;;;24.50;18.90;;;;;;;7.12;100.00;100313.77;87144;268;137178;-72
2024/03/17 08:59:23;;;;;;;30.30;20.70;;;;;;;7.13;100.00;100308.90;87428;273;25098;-72
2024/03/17 09:01:24;;;;;;;24.00;17.50;;;;;;;7.15;100.00;100308.79;87318;274;137192;-69
2024/03/17 09:03:26;;;;;;;24.30;18.60;;;;;;;7.19;100.00;100306.09;86896;271;22674;-74
2024/03/17 09:05:27;;;;;;;24.70;18.60;;;;;;;7.24;100.00;100306.62;86489;269;136856;-70
2024/03/17 09:07:28;;;;;;;25.40;19.40;;;;;;;7.29;100.00;100303.23;86828;276;25199;-72
2024/03/17 09:09:28;;;;;;;25.40;19.00;;;;;;;7.32;100.00;100303.57;87485;281;137267;-71
2024/03/17 09:11:29;;;;;;;23.80;18.10;;;;;;;7.35;100.00;100301.38;87537;268;24142;-72
2024/03/17 09:13:30;;;;;;;25.90;17.00;;;;;;;7.39;100.00;100296.33;87337;276;137006;-72
2024/03/17 09:15:31;;;;;;;25.60;18.80;;;;;;;7.43;100.00;100290.35;87350;276;25757;-72
2024/03/17 09:17:32;;;;;;;25.10;18.40;;;;;;;7.47;100.00;100288.13;87340;272;137238;-72
2024/03/17 09:19:33;;;;;;;24.00;18.70;;;;;;;7.53;100.00;100283.66;86887;271;23747;-72